sensor_id;sensor_type;location;lat;lon;timestamp;pressure;altitude;pressure_sealevel;temperature;humidity
60897;BME280;46749;32.932;-117.130;2023-05-25T00:00:25;100877.34;;;16.92;60.04
60897;BME280;46749;32.932;-117.130;2023-05-25T00:02:52;100881.75;;;16.94;60.09
60897;BME280;46749;32.932;-117.130;2023-05-25T00:05:19;100879.09;;;16.93;60.04
60897;BME280;46749;32.932;-117.130;2023-05-25T00:07:46;100879.91;;;16.90;60.21
60897;BME280;46749;32.932;-117.130;2023-05-25T00:10:12;100879.91;;;16.89;60.12
60897;BME280;46749;32.932;-117.130;2023-05-25T00:12:38;100875.53;;;16.89;60.19
60897;BME280;46749;32.932;-117.130;2023-05-25T00:15:05;100878.22;;;16.92;60.13
60897;BME280;46749;32.932;-117.130;2023-05-25T00:17:32;100868.63;;;16.94;60.01
60897;BME280;46749;32.932;-117.130;2023-05-25T00:20:02;100880.88;;;16.95;60.00
60897;BME280;46749;32.932;-117.130;2023-05-25T00:22:35;100880.84;;;16.92;60.15
60897;BME280;46749;32.932;-117.130;2023-05-25T00:25:05;100881.66;;;16.90;60.33
60897;BME280;46749;32.932;-117.130;2023-05-25T00:27:31;100875.59;;;16.92;60.28
60897;BME280;46749;32.932;-117.130;2023-05-25T00:29:57;100877.34;;;16.93;60.21
60897;BME280;46749;32.932;-117.130;2023-05-25T00:32:24;100877.38;;;16.95;60.01
60897;BME280;46749;32.932;-117.130;2023-05-25T00:34:50;100868.63;;;16.94;60.06
60897;BME280;46749;32.932;-117.130;2023-05-25T00:37:16;100873.88;;;16.94;60.03
60897;BME280;46749;32.932;-117.130;2023-05-25T00:39:43;100867.69;;;16.89;60.20
60897;BME280;46749;32.932;-117.130;2023-05-25T00:42:09;100877.34;;;16.92;60.27
60897;BME280;46749;32.932;-117.130;2023-05-25T00:44:36;100858.13;;;16.93;60.18
60897;BME280;46749;32.932;-117.130;2023-05-25T00:47:02;100868.63;;;16.94;60.18
60897;BME280;46749;32.932;-117.130;2023-05-25T00:49:32;100872.13;;;16.95;60.09
60897;BME280;46749;32.932;-117.130;2023-05-25T00:51:59;100854.63;;;16.95;60.07
60897;BME280;46749;32.932;-117.130;2023-05-25T00:54:26;100849.38;;;16.92;60.21
60897;BME280;46749;32.932;-117.130;2023-05-25T00:56:55;100849.34;;;16.91;60.26
60897;BME280;46749;32.932;-117.130;2023-05-25T00:59:49;100844.13;;;16.92;60.22
60897;BME280;46749;32.932;-117.130;2023-05-25T01:02:18;100849.38;;;16.95;60.12
60897;BME280;46749;32.932;-117.130;2023-05-25T01:04:51;100852.03;;;16.97;60.03
60897;BME280;46749;32.932;-117.130;2023-05-25T01:07:21;100845.91;;;16.96;60.07
60897;BME280;46749;32.932;-117.130;2023-05-25T01:09:57;100852.88;;;16.94;60.21
60897;BME280;46749;32.932;-117.130;2023-05-25T01:12:36;100847.63;;;16.94;60.09
60897;BME280;46749;32.932;-117.130;2023-05-25T01:15:04;100847.66;;;16.96;60.12
60897;BME280;46749;32.932;-117.130;2023-05-25T01:17:31;100847.69;;;16.97;60.22
60897;BME280;46749;32.932;-117.130;2023-05-25T01:19:57;100838.94;;;16.98;60.06
60897;BME280;46749;32.932;-117.130;2023-05-25T01:22:33;100838.06;;;16.98;59.85
60897;BME280;46749;32.932;-117.130;2023-05-25T01:25:11;100844.13;;;16.95;60.08
60897;BME280;46749;32.932;-117.130;2023-05-25T01:27:56;100837.13;;;16.94;60.18
60897;BME280;46749;32.932;-117.130;2023-05-25T01:30:25;100851.13;;;16.96;60.00
60897;BME280;46749;32.932;-117.130;2023-05-25T01:32:53;100844.19;;;16.98;59.93
60897;BME280;46749;32.932;-117.130;2023-05-25T01:35:20;100850.31;;;16.99;60.00
60897;BME280;46749;32.932;-117.130;2023-05-25T01:37:48;100838.06;;;16.98;59.87
60897;BME280;46749;32.932;-117.130;2023-05-25T01:40:14;100848.53;;;16.96;59.99
60897;BME280;46749;32.932;-117.130;2023-05-25T01:42:41;100840.66;;;16.96;60.01
60897;BME280;46749;32.932;-117.130;2023-05-25T01:45:08;100837.19;;;16.97;59.97
60897;BME280;46749;32.932;-117.130;2023-05-25T01:50:43;100831.09;;;17.00;59.96
60897;BME280;46749;32.932;-117.130;2023-05-25T01:53:19;100831.94;;;16.97;59.84
60897;BME280;46749;32.932;-117.130;2023-05-25T01:56:01;100826.63;;;16.94;59.88
60897;BME280;46749;32.932;-117.130;2023-05-25T01:58:32;100835.38;;;16.95;60.03
60897;BME280;46749;32.932;-117.130;2023-05-25T02:01:00;100833.66;;;16.95;59.91
60897;BME280;46749;32.932;-117.130;2023-05-25T02:03:27;100828.41;;;16.97;59.93
60897;BME280;46749;32.932;-117.130;2023-05-25T02:05:53;100828.44;;;16.98;59.84
60897;BME280;46749;32.932;-117.130;2023-05-25T02:08:22;100826.69;;;16.97;60.14
60897;BME280;46749;32.932;-117.130;2023-05-25T02:10:48;100831.94;;;16.97;60.01
60897;BME280;46749;32.932;-117.130;2023-05-25T02:13:15;100830.19;;;16.98;59.98
60897;BME280;46749;32.932;-117.130;2023-05-25T02:15:42;100836.31;;;16.98;59.81
60897;BME280;46749;32.932;-117.130;2023-05-25T02:18:08;100833.72;;;17.00;59.82
60897;BME280;46749;32.932;-117.130;2023-05-25T02:20:36;100838.94;;;16.98;59.87
60897;BME280;46749;32.932;-117.130;2023-05-25T02:23:02;100845.03;;;16.96;59.90
60897;BME280;46749;32.932;-117.130;2023-05-25T02:25:28;100842.38;;;16.94;60.02
60897;BME280;46749;32.932;-117.130;2023-05-25T02:27:54;100843.25;;;16.93;60.08
60897;BME280;46749;32.932;-117.130;2023-05-25T02:30:20;100852.88;;;16.94;60.03
60897;BME280;46749;32.932;-117.130;2023-05-25T02:32:47;100848.53;;;16.96;60.04
60897;BME280;46749;32.932;-117.130;2023-05-25T02:35:13;100846.81;;;16.98;59.88
60897;BME280;46749;32.932;-117.130;2023-05-25T02:37:39;100841.53;;;16.97;59.94
60897;BME280;46749;32.932;-117.130;2023-05-25T02:40:06;100852.88;;;16.94;59.74
60897;BME280;46749;32.932;-117.130;2023-05-25T02:42:34;100856.38;;;16.95;59.90
60897;BME280;46749;32.932;-117.130;2023-05-25T02:45:00;100855.50;;;16.96;59.90
60897;BME280;46749;32.932;-117.130;2023-05-25T02:47:26;100852.03;;;16.97;59.99
60897;BME280;46749;32.932;-117.130;2023-05-25T02:49:52;100849.44;;;16.98;59.79
60897;BME280;46749;32.932;-117.130;2023-05-25T02:52:18;100863.44;;;16.97;59.92
60897;BME280;46749;32.932;-117.130;2023-05-25T02:54:45;100859.00;;;16.95;59.95
60897;BME280;46749;32.932;-117.130;2023-05-25T02:57:11;100860.75;;;16.94;59.92
60897;BME280;46749;32.932;-117.130;2023-05-25T02:59:38;100863.38;;;16.94;59.87
60897;BME280;46749;32.932;-117.130;2023-05-25T03:02:04;100862.50;;;16.95;59.92
60897;BME280;46749;32.932;-117.130;2023-05-25T03:04:30;100861.63;;;16.96;59.91
60897;BME280;46749;32.932;-117.130;2023-05-25T03:06:58;100863.44;;;16.97;59.83
60897;BME280;46749;32.932;-117.130;2023-05-25T03:09:26;100865.13;;;16.95;59.91
60897;BME280;46749;32.932;-117.130;2023-05-25T03:11:52;100864.25;;;16.93;59.90
60897;BME280;46749;32.932;-117.130;2023-05-25T03:14:18;100863.38;;;16.94;60.00
60897;BME280;46749;32.932;-117.130;2023-05-25T03:16:44;100869.50;;;16.95;59.85
60897;BME280;46749;32.932;-117.130;2023-05-25T03:19:10;100864.25;;;16.96;59.85
60897;BME280;46749;32.932;-117.130;2023-05-25T03:21:37;100863.44;;;16.97;59.81
60897;BME280;46749;32.932;-117.130;2023-05-25T03:24:03;100866.00;;;16.94;59.84
60897;BME280;46749;32.932;-117.130;2023-05-25T03:26:30;100865.09;;;16.92;60.02
60897;BME280;46749;32.932;-117.130;2023-05-25T03:28:56;100875.59;;;16.92;59.88
60897;BME280;46749;32.932;-117.130;2023-05-25T03:31:23;100866.88;;;16.93;59.96
60897;BME280;46749;32.932;-117.130;2023-05-25T03:33:49;100872.13;;;16.96;59.87
60897;BME280;46749;32.932;-117.130;2023-05-25T03:36:15;100883.50;;;16.97;59.88
60897;BME280;46749;32.932;-117.130;2023-05-25T03:38:44;100867.75;;;16.94;59.86
60897;BME280;46749;32.932;-117.130;2023-05-25T03:41:10;100882.59;;;16.93;60.01
60897;BME280;46749;32.932;-117.130;2023-05-25T03:43:36;100887.00;;;16.94;60.02
60897;BME280;46749;32.932;-117.130;2023-05-25T03:46:03;100873.88;;;16.94;59.89
60897;BME280;46749;32.932;-117.130;2023-05-25T03:48:29;100881.78;;;16.97;59.78
60897;BME280;46749;32.932;-117.130;2023-05-25T03:50:55;100880.00;;;16.96;59.85
60897;BME280;46749;32.932;-117.130;2023-05-25T03:53:21;100884.38;;;16.94;59.94
60897;BME280;46749;32.932;-117.130;2023-05-25T03:55:47;100876.47;;;16.91;59.88
60897;BME280;46749;32.932;-117.130;2023-05-25T03:58:17;100882.59;;;16.92;59.81
60897;BME280;46749;32.932;-117.130;2023-05-25T04:00:43;100880.84;;;16.92;59.98
60897;BME280;46749;32.932;-117.130;2023-05-25T04:03:09;100879.97;;;16.93;59.79
60897;BME280;46749;32.932;-117.130;2023-05-25T04:05:35;100886.13;;;16.95;59.76
60897;BME280;46749;32.932;-117.130;2023-05-25T04:08:03;100882.59;;;16.93;59.96
60897;BME280;46749;32.932;-117.130;2023-05-25T04:10:29;100881.66;;;16.90;59.89
60897;BME280;46749;32.932;-117.130;2023-05-25T04:12:55;100879.91;;;16.89;60.03
60897;BME280;46749;32.932;-117.130;2023-05-25T04:15:22;100885.22;;;16.92;60.04
60897;BME280;46749;32.932;-117.130;2023-05-25T04:17:48;100886.97;;;16.93;59.90
60897;BME280;46749;32.932;-117.130;2023-05-25T04:20:14;100890.47;;;16.93;59.84
60897;BME280;46749;32.932;-117.130;2023-05-25T04:22:40;100883.47;;;16.92;59.86
60897;BME280;46749;32.932;-117.130;2023-05-25T04:25:08;100893.03;;;16.90;59.89
60897;BME280;46749;32.932;-117.130;2023-05-25T04:27:35;100891.28;;;16.89;60.02
60897;BME280;46749;32.932;-117.130;2023-05-25T04:30:02;100898.28;;;16.90;59.98
60897;BME280;46749;32.932;-117.130;2023-05-25T04:32:28;100893.97;;;16.92;59.72
60897;BME280;46749;32.932;-117.130;2023-05-25T04:34:56;100892.22;;;16.94;59.87
60897;BME280;46749;32.932;-117.130;2023-05-25T04:37:23;100885.22;;;16.93;59.77
60897;BME280;46749;32.932;-117.130;2023-05-25T04:39:53;100895.66;;;16.90;59.96
60897;BME280;46749;32.932;-117.130;2023-05-25T04:42:22;100886.97;;;16.91;59.82
60897;BME280;46749;32.932;-117.130;2023-05-25T04:44:51;100892.22;;;16.93;59.79
60897;BME280;46749;32.932;-117.130;2023-05-25T04:47:21;100890.47;;;16.93;59.94
60897;BME280;46749;32.932;-117.130;2023-05-25T04:49:47;100896.59;;;16.94;59.89
60897;BME280;46749;32.932;-117.130;2023-05-25T04:52:13;100893.09;;;16.92;59.83
60897;BME280;46749;32.932;-117.130;2023-05-25T04:54:39;100900.03;;;16.88;59.88
60897;BME280;46749;32.932;-117.130;2023-05-25T04:57:06;100893.88;;;16.86;59.87
60897;BME280;46749;32.932;-117.130;2023-05-25T04:59:32;100890.41;;;16.87;59.84
60897;BME280;46749;32.932;-117.130;2023-05-25T05:01:58;100899.16;;;16.89;59.86
60897;BME280;46749;32.932;-117.130;2023-05-25T05:04:24;100905.31;;;16.91;59.59
60897;BME280;46749;32.932;-117.130;2023-05-25T05:06:51;100906.19;;;16.92;59.80
60897;BME280;46749;32.932;-117.130;2023-05-25T05:09:17;100906.16;;;16.89;59.83
60897;BME280;46749;32.932;-117.130;2023-05-25T05:11:43;100901.75;;;16.86;59.93
60897;BME280;46749;32.932;-117.130;2023-05-25T05:14:10;100898.25;;;16.87;60.01
60897;BME280;46749;32.932;-117.130;2023-05-25T05:16:36;100901.78;;;16.89;59.82
60897;BME280;46749;32.932;-117.130;2023-05-25T05:19:03;100896.53;;;16.89;59.92
60897;BME280;46749;32.932;-117.130;2023-05-25T05:21:29;100906.16;;;16.90;59.93
60897;BME280;46749;32.932;-117.130;2023-05-25T05:23:57;100901.75;;;16.88;59.86
60897;BME280;46749;32.932;-117.130;2023-05-25T05:26:23;100904.38;;;16.86;59.86
60897;BME280;46749;32.932;-117.130;2023-05-25T05:28:49;100904.38;;;16.86;59.95
60897;BME280;46749;32.932;-117.130;2023-05-25T05:31:17;100917.50;;;16.86;59.85
60897;BME280;46749;32.932;-117.130;2023-05-25T05:33:44;100921.88;;;16.89;59.90
60897;BME280;46749;32.932;-117.130;2023-05-25T05:36:10;100911.41;;;16.90;59.88
60897;BME280;46749;32.932;-117.130;2023-05-25T05:38:36;100921.00;;;16.88;59.73
60897;BME280;46749;32.932;-117.130;2023-05-25T05:41:05;100914.00;;;16.87;59.79
60897;BME280;46749;32.932;-117.130;2023-05-25T05:43:38;100907.88;;;16.87;59.83
60897;BME280;46749;32.932;-117.130;2023-05-25T05:46:07;100910.50;;;16.88;59.77
60897;BME280;46749;32.932;-117.130;2023-05-25T05:48:35;100902.66;;;16.90;59.74
60897;BME280;46749;32.932;-117.130;2023-05-25T05:51:03;100894.78;;;16.88;59.75
60897;BME280;46749;32.932;-117.130;2023-05-25T05:53:30;100900.88;;;16.86;59.97
60897;BME280;46749;32.932;-117.130;2023-05-25T05:56:17;100902.56;;;16.82;59.95
60897;BME280;46749;32.932;-117.130;2023-05-25T05:58:44;100896.44;;;16.83;59.81
60897;BME280;46749;32.932;-117.130;2023-05-25T06:01:12;100890.34;;;16.84;59.96
60897;BME280;46749;32.932;-117.130;2023-05-25T06:03:38;100898.25;;;16.86;59.88
60897;BME280;46749;32.932;-117.130;2023-05-25T06:06:05;100897.38;;;16.87;59.85
60897;BME280;46749;32.932;-117.130;2023-05-25T06:08:31;100907.88;;;16.85;59.98
60897;BME280;46749;32.932;-117.130;2023-05-25T06:10:57;100904.31;;;16.82;59.87
60897;BME280;46749;32.932;-117.130;2023-05-25T06:13:23;100916.53;;;16.81;59.94
60897;BME280;46749;32.932;-117.130;2023-05-25T06:15:49;100919.19;;;16.84;59.95
60897;BME280;46749;32.932;-117.130;2023-05-25T06:18:16;100907.81;;;16.84;59.82
60897;BME280;46749;32.932;-117.130;2023-05-25T06:20:42;100915.72;;;16.85;60.02
60897;BME280;46749;32.932;-117.130;2023-05-25T06:23:08;100917.44;;;16.83;59.78
60897;BME280;46749;32.932;-117.130;2023-05-25T06:25:37;100914.78;;;16.82;59.80
60897;BME280;46749;32.932;-117.130;2023-05-25T06:28:03;100907.78;;;16.81;59.77
60897;BME280;46749;32.932;-117.130;2023-05-25T06:30:29;100919.16;;;16.81;59.94
60897;BME280;46749;32.932;-117.130;2023-05-25T06:32:56;100904.31;;;16.83;59.70
60897;BME280;46749;32.932;-117.130;2023-05-25T06:35:22;100912.22;;;16.85;59.85
60897;BME280;46749;32.932;-117.130;2023-05-25T06:37:49;100923.53;;;16.82;59.69
60897;BME280;46749;32.932;-117.130;2023-05-25T06:40:16;100906.03;;;16.80;59.88
60897;BME280;46749;32.932;-117.130;2023-05-25T06:42:42;100906.91;;;16.80;59.88
60897;BME280;46749;32.932;-117.130;2023-05-25T06:45:09;100910.44;;;16.82;59.69
60897;BME280;46749;32.932;-117.130;2023-05-25T06:47:36;100909.56;;;16.83;59.86
60897;BME280;46749;32.932;-117.130;2023-05-25T06:50:02;100911.31;;;16.83;59.80
60897;BME280;46749;32.932;-117.130;2023-05-25T06:52:29;100907.78;;;16.79;59.76
60897;BME280;46749;32.932;-117.130;2023-05-25T06:54:56;100914.72;;;16.77;59.95
60897;BME280;46749;32.932;-117.130;2023-05-25T06:57:23;100905.97;;;16.75;60.13
60897;BME280;46749;32.932;-117.130;2023-05-25T06:59:49;100911.22;;;16.77;60.01
60897;BME280;46749;32.932;-117.130;2023-05-25T07:02:15;100913.84;;;16.78;59.86
60897;BME280;46749;32.932;-117.130;2023-05-25T07:04:43;100906.03;;;16.80;59.89
60897;BME280;46749;32.932;-117.130;2023-05-25T07:07:09;100899.91;;;16.79;59.92
60897;BME280;46749;32.932;-117.130;2023-05-25T07:09:49;100898.97;;;16.74;59.74
60897;BME280;46749;32.932;-117.130;2023-05-25T07:12:26;100905.97;;;16.75;59.88
60897;BME280;46749;32.932;-117.130;2023-05-25T07:14:52;100903.34;;;16.75;59.90
60897;BME280;46749;32.932;-117.130;2023-05-25T07:17:19;100896.38;;;16.77;60.09
60897;BME280;46749;32.932;-117.130;2023-05-25T07:19:52;100894.66;;;16.79;59.75
60897;BME280;46749;32.932;-117.130;2023-05-25T07:22:19;100902.50;;;16.78;59.87
60897;BME280;46749;32.932;-117.130;2023-05-25T07:24:48;100891.97;;;16.73;59.74
60897;BME280;46749;32.932;-117.130;2023-05-25T07:27:20;100891.03;;;16.71;59.92
60897;BME280;46749;32.932;-117.130;2023-05-25T07:29:46;100898.09;;;16.74;60.14
60897;BME280;46749;32.932;-117.130;2023-05-25T07:32:13;100883.22;;;16.74;60.04
60897;BME280;46749;32.932;-117.130;2023-05-25T07:34:39;100877.13;;;16.75;59.71
60897;BME280;46749;32.932;-117.130;2023-05-25T07:37:06;100870.09;;;16.74;59.71
60897;BME280;46749;32.932;-117.130;2023-05-25T07:39:32;100872.69;;;16.71;59.84
60897;BME280;46749;32.932;-117.130;2023-05-25T07:41:58;100872.72;;;16.73;60.02
60897;BME280;46749;32.932;-117.130;2023-05-25T07:44:28;100870.97;;;16.73;59.92
60897;BME280;46749;32.932;-117.130;2023-05-25T07:46:58;100869.25;;;16.75;59.80
60897;BME280;46749;32.932;-117.130;2023-05-25T07:49:24;100863.13;;;16.76;59.76
60897;BME280;46749;32.932;-117.130;2023-05-25T07:51:56;100864.88;;;16.74;59.69
60897;BME280;46749;32.932;-117.130;2023-05-25T07:54:23;100861.31;;;16.70;59.92
60897;BME280;46749;32.932;-117.130;2023-05-25T07:56:52;100862.13;;;16.68;59.99
60897;BME280;46749;32.932;-117.130;2023-05-25T07:59:19;100858.63;;;16.69;59.83
60897;BME280;46749;32.932;-117.130;2023-05-25T08:01:45;100858.69;;;16.70;59.88
60897;BME280;46749;32.932;-117.130;2023-05-25T08:04:11;100861.34;;;16.72;59.89
60897;BME280;46749;32.932;-117.130;2023-05-25T08:06:37;100859.56;;;16.71;59.73
60897;BME280;46749;32.932;-117.130;2023-05-25T08:09:04;100856.88;;;16.68;59.89
60897;BME280;46749;32.932;-117.130;2023-05-25T08:11:32;100861.22;;;16.66;59.95
60897;BME280;46749;32.932;-117.130;2023-05-25T08:13:58;100865.59;;;16.67;59.83
60897;BME280;46749;32.932;-117.130;2023-05-25T08:16:25;100857.75;;;16.68;59.81
60897;BME280;46749;32.932;-117.130;2023-05-25T08:18:51;100864.81;;;16.71;59.77
60897;BME280;46749;32.932;-117.130;2023-05-25T08:21:17;100868.31;;;16.71;59.67
60897;BME280;46749;32.932;-117.130;2023-05-25T08:23:43;100860.38;;;16.68;59.88
60897;BME280;46749;32.932;-117.130;2023-05-25T08:26:10;100851.56;;;16.65;59.82
60897;BME280;46749;32.932;-117.130;2023-05-25T08:28:37;100857.69;;;16.65;59.99
60897;BME280;46749;32.932;-117.130;2023-05-25T08:31:03;100855.13;;;16.67;59.89
60897;BME280;46749;32.932;-117.130;2023-05-25T08:33:30;100855.13;;;16.68;59.75
60897;BME280;46749;32.932;-117.130;2023-05-25T08:35:56;100841.16;;;16.68;59.80
60897;BME280;46749;32.932;-117.130;2023-05-25T08:38:24;100840.25;;;16.66;59.83
60897;BME280;46749;32.932;-117.130;2023-05-25T08:41:04;100837.59;;;16.64;59.94
60897;BME280;46749;32.932;-117.130;2023-05-25T08:43:32;100840.25;;;16.66;59.87
60897;BME280;46749;32.932;-117.130;2023-05-25T08:46:06;100832.38;;;16.66;59.90
60897;BME280;46749;32.932;-117.130;2023-05-25T08:48:34;100828.91;;;16.68;59.72
60897;BME280;46749;32.932;-117.130;2023-05-25T08:51:04;100832.41;;;16.67;59.66
60897;BME280;46749;32.932;-117.130;2023-05-25T08:53:34;100825.34;;;16.63;59.92
60897;BME280;46749;32.932;-117.130;2023-05-25T08:56:21;100831.44;;;16.61;59.91
60897;BME280;46749;32.932;-117.130;2023-05-25T08:59:03;100833.19;;;16.62;60.06
60897;BME280;46749;32.932;-117.130;2023-05-25T09:01:32;100828.84;;;16.64;59.92
60897;BME280;46749;32.932;-117.130;2023-05-25T09:04:03;100827.09;;;16.64;59.85
60897;BME280;46749;32.932;-117.130;2023-05-25T09:06:29;100830.59;;;16.65;59.84
60897;BME280;46749;32.932;-117.130;2023-05-25T09:08:56;100825.31;;;16.62;59.85
60897;BME280;46749;32.932;-117.130;2023-05-25T09:11:22;100822.66;;;16.59;60.00
60897;BME280;46749;32.932;-117.130;2023-05-25T09:13:48;100821.81;;;16.60;59.90
60897;BME280;46749;32.932;-117.130;2023-05-25T09:16:15;100819.19;;;16.60;60.01
60897;BME280;46749;32.932;-117.130;2023-05-25T09:18:41;100824.47;;;16.63;59.83
60897;BME280;46749;32.932;-117.130;2023-05-25T09:21:07;100831.47;;;16.64;59.81
60897;BME280;46749;32.932;-117.130;2023-05-25T09:23:34;100820.06;;;16.60;59.82
60897;BME280;46749;32.932;-117.130;2023-05-25T09:26:02;100829.63;;;16.57;60.00
60897;BME280;46749;32.932;-117.130;2023-05-25T09:28:28;100830.50;;;16.57;59.97
60897;BME280;46749;32.932;-117.130;2023-05-25T09:30:55;100833.13;;;16.59;60.02
60897;BME280;46749;32.932;-117.130;2023-05-25T09:33:21;100826.16;;;16.59;59.83
60897;BME280;46749;32.932;-117.130;2023-05-25T09:35:47;100822.72;;;16.62;59.75
60897;BME280;46749;32.932;-117.130;2023-05-25T09:38:15;100828.78;;;16.59;60.05
60897;BME280;46749;32.932;-117.130;2023-05-25T09:40:41;100820.00;;;16.57;59.87
60897;BME280;46749;32.932;-117.130;2023-05-25T09:43:07;100820.91;;;16.58;59.90
60897;BME280;46749;32.932;-117.130;2023-05-25T09:45:33;100822.66;;;16.59;59.83
60897;BME280;46749;32.932;-117.130;2023-05-25T09:48:05;100828.81;;;16.61;59.73
60897;BME280;46749;32.932;-117.130;2023-05-25T09:50:32;100824.44;;;16.60;60.05
60897;BME280;46749;32.932;-117.130;2023-05-25T09:52:59;100834.88;;;16.57;59.90
60897;BME280;46749;32.932;-117.130;2023-05-25T09:55:29;100828.72;;;16.53;59.96
60897;BME280;46749;32.932;-117.130;2023-05-25T09:57:55;100826.09;;;16.55;59.90
60897;BME280;46749;32.932;-117.130;2023-05-25T10:00:25;100827.88;;;16.56;59.84
60897;BME280;46749;32.932;-117.130;2023-05-25T10:02:52;100825.25;;;16.56;60.03
60897;BME280;46749;32.932;-117.130;2023-05-25T10:05:18;100830.50;;;16.57;59.86
60897;BME280;46749;32.932;-117.130;2023-05-25T10:07:45;100825.25;;;16.56;59.94
60897;BME280;46749;32.932;-117.130;2023-05-25T10:10:15;100816.50;;;16.54;60.02
60897;BME280;46749;32.932;-117.130;2023-05-25T10:12:42;100814.75;;;16.54;59.93
60897;BME280;46749;32.932;-117.130;2023-05-25T10:15:11;100815.63;;;16.56;59.83
60897;BME280;46749;32.932;-117.130;2023-05-25T10:17:52;100812.13;;;16.56;59.65
60897;BME280;46749;32.932;-117.130;2023-05-25T10:20:21;100819.13;;;16.55;59.89
60897;BME280;46749;32.932;-117.130;2023-05-25T10:22:56;100808.56;;;16.51;60.02
60897;BME280;46749;32.932;-117.130;2023-05-25T10:25:28;100808.53;;;16.48;60.01
60897;BME280;46749;32.932;-117.130;2023-05-25T10:28:02;100800.69;;;16.48;60.08
60897;BME280;46749;32.932;-117.130;2023-05-25T10:30:29;100796.31;;;16.50;59.85
60897;BME280;46749;32.932;-117.130;2023-05-25T10:32:56;100794.59;;;16.52;60.02
60897;BME280;46749;32.932;-117.130;2023-05-25T10:35:23;100795.47;;;16.52;59.93
60897;BME280;46749;32.932;-117.130;2023-05-25T10:37:51;100797.22;;;16.52;59.92
60897;BME280;46749;32.932;-117.130;2023-05-25T10:40:20;100798.94;;;16.50;59.89
60897;BME280;46749;32.932;-117.130;2023-05-25T10:42:51;100790.19;;;16.49;59.92
60897;BME280;46749;32.932;-117.130;2023-05-25T10:45:17;100786.72;;;16.50;60.00
60897;BME280;46749;32.932;-117.130;2023-05-25T10:47:44;100789.34;;;16.52;59.86
60897;BME280;46749;32.932;-117.130;2023-05-25T10:50:22;100777.97;;;16.51;59.77
60897;BME280;46749;32.932;-117.130;2023-05-25T10:53:11;100784.97;;;16.49;60.01
60897;BME280;46749;32.932;-117.130;2023-05-25T10:58:21;100776.16;;;16.45;59.86
60897;BME280;46749;32.932;-117.130;2023-05-25T11:01:08;100777.91;;;16.46;60.09
60897;BME280;46749;32.932;-117.130;2023-05-25T11:03:48;100768.34;;;16.49;59.95
60897;BME280;46749;32.932;-117.130;2023-05-25T11:06:19;100770.09;;;16.50;59.96
60897;BME280;46749;32.932;-117.130;2023-05-25T11:08:56;100763.06;;;16.45;59.71
60897;BME280;46749;32.932;-117.130;2023-05-25T11:17:07;100780.53;;;16.46;59.90
60897;BME280;46749;32.932;-117.130;2023-05-25T11:19:43;100781.47;;;16.49;59.83
60897;BME280;46749;32.932;-117.130;2023-05-25T11:24:49;100767.41;;;16.43;60.00
60897;BME280;46749;32.932;-117.130;2023-05-25T11:27:24;100777.84;;;16.40;59.95
60897;BME280;46749;32.932;-117.130;2023-05-25T11:29:52;100776.13;;;16.42;59.96
60897;BME280;46749;32.932;-117.130;2023-05-25T11:32:19;100778.78;;;16.45;59.85
60897;BME280;46749;32.932;-117.130;2023-05-25T11:34:51;100784.03;;;16.45;59.81
60897;BME280;46749;32.932;-117.130;2023-05-25T11:37:19;100782.25;;;16.44;59.85
60897;BME280;46749;32.932;-117.130;2023-05-25T11:39:51;100777.84;;;16.40;59.86
60897;BME280;46749;32.932;-117.130;2023-05-25T11:42:22;100778.75;;;16.41;59.90
60897;BME280;46749;32.932;-117.130;2023-05-25T11:44:49;100772.63;;;16.42;60.01
60897;BME280;46749;32.932;-117.130;2023-05-25T11:47:18;100775.28;;;16.43;59.78
60897;BME280;46749;32.932;-117.130;2023-05-25T11:49:48;100775.28;;;16.45;59.83
60897;BME280;46749;32.932;-117.130;2023-05-25T11:52:18;100771.75;;;16.41;59.98
60897;BME280;46749;32.932;-117.130;2023-05-25T11:54:45;100762.97;;;16.39;60.01
60897;BME280;46749;32.932;-117.130;2023-05-25T11:57:19;100763.84;;;16.40;60.02
60897;BME280;46749;32.932;-117.130;2023-05-25T11:59:51;100756.91;;;16.42;59.81
60897;BME280;46749;32.932;-117.130;2023-05-25T12:02:18;100759.53;;;16.43;59.93
60897;BME280;46749;32.932;-117.130;2023-05-25T12:05:03;100756.03;;;16.41;59.80
60897;BME280;46749;32.932;-117.130;2023-05-25T12:07:30;100750.72;;;16.38;59.93
60897;BME280;46749;32.932;-117.130;2023-05-25T12:10:07;100750.66;;;16.34;59.78
60897;BME280;46749;32.932;-117.130;2023-05-25T12:12:40;100751.53;;;16.33;60.07
60897;BME280;46749;32.932;-117.130;2023-05-25T12:15:14;100745.47;;;16.35;60.01
60897;BME280;46749;32.932;-117.130;2023-05-25T12:17:42;100749.84;;;16.38;60.07
60897;BME280;46749;32.932;-117.130;2023-05-25T12:20:10;100755.97;;;16.38;59.83
60897;BME280;46749;32.932;-117.130;2023-05-25T12:22:40;100743.72;;;16.37;59.78
60897;BME280;46749;32.932;-117.130;2023-05-25T12:25:07;100742.78;;;16.34;59.99
60897;BME280;46749;32.932;-117.130;2023-05-25T12:27:35;100741.91;;;16.33;60.00
60897;BME280;46749;32.932;-117.130;2023-05-25T12:30:03;100741.09;;;16.34;60.06
60897;BME280;46749;32.932;-117.130;2023-05-25T12:32:30;100732.34;;;16.35;60.02
60897;BME280;46749;32.932;-117.130;2023-05-25T12:35:05;100729.75;;;16.37;59.90
60897;BME280;46749;32.932;-117.130;2023-05-25T12:37:32;100729.75;;;16.37;59.79
60897;BME280;46749;32.932;-117.130;2023-05-25T12:39:59;100726.19;;;16.33;60.11